Gaschem Jade — ELSU9 — position and weather

sailwx.info

Track history (hours):
 
Tides and Currents Weather Stations Pressure Air Temp Water Temp Dewpoint Dewpoint Depression Visibility Wind Speed Wind Dir Waves Ship Positions

Gaschem Jade

Last reported at 2016-May-24 07:03 UTC. Time now 2016-May-27 18:10 UTC.
Position N 36°03' W 000°36'.

Length 113.2 m; beam 15.9 m; draft 6.1 m.

Type: Ship. MMSI: 636090168.

Date/timePositionNaut miles runAvg speedWind from/ knotsBaromVisibWave heightAir tempDewpointWater temp
2016-May-24 07:03N 36°03' W 000°36'611.6
2016-May-24 06:34N 36°04' W 000°29'1010.5
2016-May-24 05:34N 35°60' W 000°17'9 8.7
2016-May-24 04:33N 35°51' W 000°18'122 3.8
2016-May-22 20:32N 36°52' E 001°53'2610.9
2016-May-22 18:09N 36°57' E 002°25'2110.7
2016-May-22 16:14N 37°02' E 002°50'1311.1
2016-May-22 15:04N 37°05' E 003°06'610.7
2016-May-22 14:31N 37°06' E 003°13'1211.3
2016-May-22 13:28N 37°09' E 003°28'2110.8
2016-May-22 11:33N 37°14' E 003°53'1110.5
2016-May-22 10:33N 37°15' E 004°06'1110.7
2016-May-22 09:33N 37°16' E 004°19'  
Track history (hours):
 
Tides and Currents Weather Stations Pressure Air Temp Water Temp Dewpoint Dewpoint Depression Visibility Wind Speed Wind Dir Waves Ship Positions

Gaschem Jade

Last reported at 2016-May-24 07:03 UTC. Time now 2016-May-27 18:10 UTC.
Position N 36°03' W 000°36'.

Length 113.2 m; beam 15.9 m; draft 6.1 m.

Type: Ship. MMSI: 636090168.

Date/timePositionNaut miles runAvg speedWind from/ knotsBaromVisibWave heightAir tempDewpointWater temp
2016-May-24 07:03N 36°03' W 000°36'611.6
2016-May-24 06:34N 36°04' W 000°29'1010.5
2016-May-24 05:34N 35°60' W 000°17'9 8.7
2016-May-24 04:33N 35°51' W 000°18'122 3.8
2016-May-22 20:32N 36°52' E 001°53'2610.9
2016-May-22 18:09N 36°57' E 002°25'2110.7
2016-May-22 16:14N 37°02' E 002°50'1311.1
2016-May-22 15:04N 37°05' E 003°06'610.7
2016-May-22 14:31N 37°06' E 003°13'1211.3
2016-May-22 13:28N 37°09' E 003°28'2110.8
2016-May-22 11:33N 37°14' E 003°53'1110.5
2016-May-22 10:33N 37°15' E 004°06'1110.7
2016-May-22 09:33N 37°16' E 004°19'  

Dump ship's entire track history